sensor_id;sensor_type;location;lat;lon;timestamp;temperature;humidity
6988;DHT22;3534;49.960;8.018;2022-09-09T00:01:18;19.40;99.90
6988;DHT22;3534;49.960;8.018;2022-09-09T00:03:53;19.30;99.90
6988;DHT22;3534;49.960;8.018;2022-09-09T00:06:24;19.30;99.90
6988;DHT22;3534;49.960;8.018;2022-09-09T00:09:04;19.30;99.90
6988;DHT22;3534;49.960;8.018;2022-09-09T00:11:39;19.20;99.90
6988;DHT22;3534;49.960;8.018;2022-09-09T00:14:14;19.20;99.90
6988;DHT22;3534;49.960;8.018;2022-09-09T00:16:49;19.20;99.90
6988;DHT22;3534;49.960;8.018;2022-09-09T00:19:20;19.20;99.90
6988;DHT22;3534;49.960;8.018;2022-09-09T00:21:56;19.20;99.90
6988;DHT22;3534;49.960;8.018;2022-09-09T00:24:29;19.10;99.90
6988;DHT22;3534;49.960;8.018;2022-09-09T00:27:03;19.10;99.90
6988;DHT22;3534;49.960;8.018;2022-09-09T00:29:37;19.10;99.90
6988;DHT22;3534;49.960;8.018;2022-09-09T00:32:12;19.10;99.90
6988;DHT22;3534;49.960;8.018;2022-09-09T00:34:47;19.00;99.90
6988;DHT22;3534;49.960;8.018;2022-09-09T00:37:15;19.00;99.90
6988;DHT22;3534;49.960;8.018;2022-09-09T00:39:43;19.00;99.90
6988;DHT22;3534;49.960;8.018;2022-09-09T00:42:15;19.00;99.90
6988;DHT22;3534;49.960;8.018;2022-09-09T00:44:51;19.00;99.90
6988;DHT22;3534;49.960;8.018;2022-09-09T00:47:43;19.00;99.90
6988;DHT22;3534;49.960;8.018;2022-09-09T00:50:29;19.00;99.90
6988;DHT22;3534;49.960;8.018;2022-09-09T00:53:09;19.00;99.90
6988;DHT22;3534;49.960;8.018;2022-09-09T00:55:41;19.00;99.90
6988;DHT22;3534;49.960;8.018;2022-09-09T00:58:10;18.90;99.90
6988;DHT22;3534;49.960;8.018;2022-09-09T01:00:42;18.90;99.90
6988;DHT22;3534;49.960;8.018;2022-09-09T01:03:23;18.80;99.90
6988;DHT22;3534;49.960;8.018;2022-09-09T01:06:01;18.80;99.90
6988;DHT22;3534;49.960;8.018;2022-09-09T01:11:42;18.80;99.90
6988;DHT22;3534;49.960;8.018;2022-09-09T01:14:16;18.80;99.90
6988;DHT22;3534;49.960;8.018;2022-09-09T01:16:47;18.80;99.90
6988;DHT22;3534;49.960;8.018;2022-09-09T01:19:24;18.70;99.90
6988;DHT22;3534;49.960;8.018;2022-09-09T01:21:59;18.70;99.90
6988;DHT22;3534;49.960;8.018;2022-09-09T01:24:34;18.70;99.90
6988;DHT22;3534;49.960;8.018;2022-09-09T01:27:04;18.70;99.90
6988;DHT22;3534;49.960;8.018;2022-09-09T01:29:32;18.70;99.90
6988;DHT22;3534;49.960;8.018;2022-09-09T01:32:01;18.70;99.90
6988;DHT22;3534;49.960;8.018;2022-09-09T01:34:33;18.70;99.90
6988;DHT22;3534;49.960;8.018;2022-09-09T01:37:02;18.70;99.90
6988;DHT22;3534;49.960;8.018;2022-09-09T01:39:31;18.70;99.90
6988;DHT22;3534;49.960;8.018;2022-09-09T01:41:59;18.60;99.90
6988;DHT22;3534;49.960;8.018;2022-09-09T01:44:28;18.60;99.90
6988;DHT22;3534;49.960;8.018;2022-09-09T01:46:55;18.60;99.90
6988;DHT22;3534;49.960;8.018;2022-09-09T01:49:22;18.60;99.90
6988;DHT22;3534;49.960;8.018;2022-09-09T01:51:51;18.60;99.90
6988;DHT22;3534;49.960;8.018;2022-09-09T01:54:19;18.50;99.90
6988;DHT22;3534;49.960;8.018;2022-09-09T01:56:54;18.60;99.90
6988;DHT22;3534;49.960;8.018;2022-09-09T01:59:33;18.60;99.90
6988;DHT22;3534;49.960;8.018;2022-09-09T02:02:10;18.50;99.90
6988;DHT22;3534;49.960;8.018;2022-09-09T02:04:39;18.50;99.90
6988;DHT22;3534;49.960;8.018;2022-09-09T02:07:15;18.40;99.90
6988;DHT22;3534;49.960;8.018;2022-09-09T02:09:52;18.40;99.90
6988;DHT22;3534;49.960;8.018;2022-09-09T02:12:24;18.40;99.90
6988;DHT22;3534;49.960;8.018;2022-09-09T02:14:59;18.40;99.90
6988;DHT22;3534;49.960;8.018;2022-09-09T02:17:29;18.40;99.90
6988;DHT22;3534;49.960;8.018;2022-09-09T02:20:03;18.40;99.90
6988;DHT22;3534;49.960;8.018;2022-09-09T02:22:32;18.40;99.90
6988;DHT22;3534;49.960;8.018;2022-09-09T02:25:00;18.40;99.90
6988;DHT22;3534;49.960;8.018;2022-09-09T02:27:28;18.30;99.90
6988;DHT22;3534;49.960;8.018;2022-09-09T02:29:58;18.30;99.90
6988;DHT22;3534;49.960;8.018;2022-09-09T02:32:28;18.30;99.90
6988;DHT22;3534;49.960;8.018;2022-09-09T02:34:59;18.30;99.90
6988;DHT22;3534;49.960;8.018;2022-09-09T02:37:31;18.30;99.90
6988;DHT22;3534;49.960;8.018;2022-09-09T02:39:58;18.30;99.90
6988;DHT22;3534;49.960;8.018;2022-09-09T02:42:25;18.30;99.90
6988;DHT22;3534;49.960;8.018;2022-09-09T02:44:52;18.30;99.90
6988;DHT22;3534;49.960;8.018;2022-09-09T02:47:30;18.20;99.90
6988;DHT22;3534;49.960;8.018;2022-09-09T02:50:11;18.10;99.90
6988;DHT22;3534;49.960;8.018;2022-09-09T02:52:46;18.10;99.90
6988;DHT22;3534;49.960;8.018;2022-09-09T02:55:18;18.10;99.90
6988;DHT22;3534;49.960;8.018;2022-09-09T02:57:48;18.10;99.90
6988;DHT22;3534;49.960;8.018;2022-09-09T03:00:15;18.10;99.90
6988;DHT22;3534;49.960;8.018;2022-09-09T03:02:43;18.10;99.90
6988;DHT22;3534;49.960;8.018;2022-09-09T03:05:10;18.10;99.90
6988;DHT22;3534;49.960;8.018;2022-09-09T03:07:38;18.10;99.90
6988;DHT22;3534;49.960;8.018;2022-09-09T03:10:06;18.10;99.90
6988;DHT22;3534;49.960;8.018;2022-09-09T03:12:33;18.10;99.90
6988;DHT22;3534;49.960;8.018;2022-09-09T03:15:00;18.10;99.90
6988;DHT22;3534;49.960;8.018;2022-09-09T03:17:26;18.10;99.90
6988;DHT22;3534;49.960;8.018;2022-09-09T03:19:54;18.10;99.90
6988;DHT22;3534;49.960;8.018;2022-09-09T03:22:24;18.10;99.90
6988;DHT22;3534;49.960;8.018;2022-09-09T03:24:51;18.10;99.90
6988;DHT22;3534;49.960;8.018;2022-09-09T03:27:18;18.10;99.90
6988;DHT22;3534;49.960;8.018;2022-09-09T03:29:45;18.10;99.90
6988;DHT22;3534;49.960;8.018;2022-09-09T03:32:15;18.10;99.90
6988;DHT22;3534;49.960;8.018;2022-09-09T03:34:42;18.10;99.90
6988;DHT22;3534;49.960;8.018;2022-09-09T03:37:11;18.10;99.90
6988;DHT22;3534;49.960;8.018;2022-09-09T03:39:37;18.10;99.90
6988;DHT22;3534;49.960;8.018;2022-09-09T03:42:04;18.10;99.90
6988;DHT22;3534;49.960;8.018;2022-09-09T03:44:31;18.10;99.90
6988;DHT22;3534;49.960;8.018;2022-09-09T03:46:57;18.20;99.90
6988;DHT22;3534;49.960;8.018;2022-09-09T03:49:26;18.20;99.90
6988;DHT22;3534;49.960;8.018;2022-09-09T03:51:54;18.20;99.90
6988;DHT22;3534;49.960;8.018;2022-09-09T03:54:23;18.20;99.90
6988;DHT22;3534;49.960;8.018;2022-09-09T03:56:50;18.20;99.90
6988;DHT22;3534;49.960;8.018;2022-09-09T03:59:16;18.20;99.90
6988;DHT22;3534;49.960;8.018;2022-09-09T04:01:43;18.20;99.90
6988;DHT22;3534;49.960;8.018;2022-09-09T04:04:10;18.20;99.90
6988;DHT22;3534;49.960;8.018;2022-09-09T04:06:37;18.20;99.90
6988;DHT22;3534;49.960;8.018;2022-09-09T04:09:04;18.20;99.90
6988;DHT22;3534;49.960;8.018;2022-09-09T04:11:32;18.20;99.90
6988;DHT22;3534;49.960;8.018;2022-09-09T04:13:59;18.20;99.90
6988;DHT22;3534;49.960;8.018;2022-09-09T04:16:26;18.20;99.90
6988;DHT22;3534;49.960;8.018;2022-09-09T04:18:53;18.20;99.90
6988;DHT22;3534;49.960;8.018;2022-09-09T04:21:19;18.20;99.90
6988;DHT22;3534;49.960;8.018;2022-09-09T04:23:46;18.20;99.90
6988;DHT22;3534;49.960;8.018;2022-09-09T04:26:13;18.20;99.90
6988;DHT22;3534;49.960;8.018;2022-09-09T04:28:41;18.10;99.90
6988;DHT22;3534;49.960;8.018;2022-09-09T04:31:10;18.10;99.90
6988;DHT22;3534;49.960;8.018;2022-09-09T04:33:37;18.10;99.90
6988;DHT22;3534;49.960;8.018;2022-09-09T04:36:05;18.10;99.90
6988;DHT22;3534;49.960;8.018;2022-09-09T04:38:31;18.10;99.90
6988;DHT22;3534;49.960;8.018;2022-09-09T04:40:58;18.00;99.90
6988;DHT22;3534;49.960;8.018;2022-09-09T04:43:25;18.00;99.90
6988;DHT22;3534;49.960;8.018;2022-09-09T04:45:54;18.00;99.90
6988;DHT22;3534;49.960;8.018;2022-09-09T04:48:21;18.00;99.90
6988;DHT22;3534;49.960;8.018;2022-09-09T04:50:55;18.00;99.90
6988;DHT22;3534;49.960;8.018;2022-09-09T04:53:22;18.00;99.90
6988;DHT22;3534;49.960;8.018;2022-09-09T04:55:50;18.00;99.90
6988;DHT22;3534;49.960;8.018;2022-09-09T04:58:17;18.00;99.90
6988;DHT22;3534;49.960;8.018;2022-09-09T05:00:44;17.90;99.90
6988;DHT22;3534;49.960;8.018;2022-09-09T05:03:12;17.90;99.90
6988;DHT22;3534;49.960;8.018;2022-09-09T05:05:38;17.90;99.90
6988;DHT22;3534;49.960;8.018;2022-09-09T05:08:06;17.90;99.90
6988;DHT22;3534;49.960;8.018;2022-09-09T05:10:35;17.90;99.90
6988;DHT22;3534;49.960;8.018;2022-09-09T05:13:03;17.90;99.90
6988;DHT22;3534;49.960;8.018;2022-09-09T05:15:30;17.90;99.90
6988;DHT22;3534;49.960;8.018;2022-09-09T05:17:58;17.80;99.90
6988;DHT22;3534;49.960;8.018;2022-09-09T05:20:27;17.70;99.90
6988;DHT22;3534;49.960;8.018;2022-09-09T05:22:54;17.60;99.90
6988;DHT22;3534;49.960;8.018;2022-09-09T05:25:21;17.60;99.90
6988;DHT22;3534;49.960;8.018;2022-09-09T05:27:48;17.50;99.90
6988;DHT22;3534;49.960;8.018;2022-09-09T05:30:15;17.50;99.90
6988;DHT22;3534;49.960;8.018;2022-09-09T05:32:42;17.50;99.90
6988;DHT22;3534;49.960;8.018;2022-09-09T05:35:08;17.60;99.90
6988;DHT22;3534;49.960;8.018;2022-09-09T05:37:36;17.60;99.90
6988;DHT22;3534;49.960;8.018;2022-09-09T05:40:04;17.70;99.90
6988;DHT22;3534;49.960;8.018;2022-09-09T05:42:31;17.70;99.90
6988;DHT22;3534;49.960;8.018;2022-09-09T05:44:58;17.70;99.90
6988;DHT22;3534;49.960;8.018;2022-09-09T05:47:24;17.80;99.90
6988;DHT22;3534;49.960;8.018;2022-09-09T05:49:53;17.80;99.90
6988;DHT22;3534;49.960;8.018;2022-09-09T05:52:20;17.80;99.90
6988;DHT22;3534;49.960;8.018;2022-09-09T05:54:48;17.80;99.90
6988;DHT22;3534;49.960;8.018;2022-09-09T05:57:14;17.90;99.90
6988;DHT22;3534;49.960;8.018;2022-09-09T05:59:41;17.90;99.90
6988;DHT22;3534;49.960;8.018;2022-09-09T06:02:08;17.90;99.90
6988;DHT22;3534;49.960;8.018;2022-09-09T06:04:35;18.00;99.90
6988;DHT22;3534;49.960;8.018;2022-09-09T06:07:01;18.00;99.90
6988;DHT22;3534;49.960;8.018;2022-09-09T06:09:28;18.00;99.90
6988;DHT22;3534;49.960;8.018;2022-09-09T06:11:57;18.00;99.90
6988;DHT22;3534;49.960;8.018;2022-09-09T06:14:24;18.00;99.90
6988;DHT22;3534;49.960;8.018;2022-09-09T06:16:52;18.10;99.90
6988;DHT22;3534;49.960;8.018;2022-09-09T06:19:19;18.10;99.90
6988;DHT22;3534;49.960;8.018;2022-09-09T06:21:46;18.10;99.90
6988;DHT22;3534;49.960;8.018;2022-09-09T06:24:13;18.10;99.90
6988;DHT22;3534;49.960;8.018;2022-09-09T06:26:42;18.10;99.90
6988;DHT22;3534;49.960;8.018;2022-09-09T06:29:11;18.20;99.90
6988;DHT22;3534;49.960;8.018;2022-09-09T06:31:38;18.20;99.90
6988;DHT22;3534;49.960;8.018;2022-09-09T06:34:06;18.20;99.90
6988;DHT22;3534;49.960;8.018;2022-09-09T06:36:34;18.20;99.90
6988;DHT22;3534;49.960;8.018;2022-09-09T06:39:02;18.20;99.90
6988;DHT22;3534;49.960;8.018;2022-09-09T06:41:31;18.20;99.90
6988;DHT22;3534;49.960;8.018;2022-09-09T06:43:58;18.30;99.90
6988;DHT22;3534;49.960;8.018;2022-09-09T06:46:28;18.30;99.90
6988;DHT22;3534;49.960;8.018;2022-09-09T06:48:56;18.30;99.90
6988;DHT22;3534;49.960;8.018;2022-09-09T06:51:26;18.40;99.90
6988;DHT22;3534;49.960;8.018;2022-09-09T06:53:55;18.40;99.90
6988;DHT22;3534;49.960;8.018;2022-09-09T06:56:23;18.40;99.90
6988;DHT22;3534;49.960;8.018;2022-09-09T06:58:51;18.50;99.90
6988;DHT22;3534;49.960;8.018;2022-09-09T07:01:19;18.60;99.90
6988;DHT22;3534;49.960;8.018;2022-09-09T07:03:49;18.60;99.90
6988;DHT22;3534;49.960;8.018;2022-09-09T07:06:21;18.60;99.90
6988;DHT22;3534;49.960;8.018;2022-09-09T07:08:49;18.60;99.90
6988;DHT22;3534;49.960;8.018;2022-09-09T07:11:18;18.70;99.90
6988;DHT22;3534;49.960;8.018;2022-09-09T07:13:46;18.60;99.90
6988;DHT22;3534;49.960;8.018;2022-09-09T07:16:14;18.70;99.90
6988;DHT22;3534;49.960;8.018;2022-09-09T07:18:41;18.70;99.90
6988;DHT22;3534;49.960;8.018;2022-09-09T07:21:11;18.70;99.90
6988;DHT22;3534;49.960;8.018;2022-09-09T07:23:38;18.60;99.90
6988;DHT22;3534;49.960;8.018;2022-09-09T07:26:08;18.60;99.90
6988;DHT22;3534;49.960;8.018;2022-09-09T07:28:36;18.70;99.90
6988;DHT22;3534;49.960;8.018;2022-09-09T07:31:04;18.70;99.90
6988;DHT22;3534;49.960;8.018;2022-09-09T07:33:32;18.80;99.90
6988;DHT22;3534;49.960;8.018;2022-09-09T07:36:05;18.90;99.90
6988;DHT22;3534;49.960;8.018;2022-09-09T07:38:37;18.80;99.90
6988;DHT22;3534;49.960;8.018;2022-09-09T07:41:06;18.90;99.90
6988;DHT22;3534;49.960;8.018;2022-09-09T07:43:34;18.90;99.90
6988;DHT22;3534;49.960;8.018;2022-09-09T07:46:00;19.00;99.90
6988;DHT22;3534;49.960;8.018;2022-09-09T07:48:27;19.10;99.90
6988;DHT22;3534;49.960;8.018;2022-09-09T07:51:07;19.20;99.90
6988;DHT22;3534;49.960;8.018;2022-09-09T07:53:36;19.30;99.90
6988;DHT22;3534;49.960;8.018;2022-09-09T07:56:05;19.30;99.90
6988;DHT22;3534;49.960;8.018;2022-09-09T07:58:32;19.30;99.90
6988;DHT22;3534;49.960;8.018;2022-09-09T08:00:59;19.40;99.90
6988;DHT22;3534;49.960;8.018;2022-09-09T08:03:26;19.40;99.90
6988;DHT22;3534;49.960;8.018;2022-09-09T08:05:52;19.40;99.90
6988;DHT22;3534;49.960;8.018;2022-09-09T08:08:19;19.40;99.90
6988;DHT22;3534;49.960;8.018;2022-09-09T08:10:47;19.40;99.90
6988;DHT22;3534;49.960;8.018;2022-09-09T08:13:14;19.30;99.90
6988;DHT22;3534;49.960;8.018;2022-09-09T08:15:41;19.30;99.90
6988;DHT22;3534;49.960;8.018;2022-09-09T08:18:08;19.40;99.90
6988;DHT22;3534;49.960;8.018;2022-09-09T08:20:36;19.50;99.90
6988;DHT22;3534;49.960;8.018;2022-09-09T08:23:03;19.50;99.90
6988;DHT22;3534;49.960;8.018;2022-09-09T08:25:30;19.50;99.90
6988;DHT22;3534;49.960;8.018;2022-09-09T08:27:58;19.50;99.90
6988;DHT22;3534;49.960;8.018;2022-09-09T08:30:25;19.50;99.90
6988;DHT22;3534;49.960;8.018;2022-09-09T08:32:52;19.50;99.90
6988;DHT22;3534;49.960;8.018;2022-09-09T08:35:19;19.50;99.90
6988;DHT22;3534;49.960;8.018;2022-09-09T08:37:45;19.60;99.90
6988;DHT22;3534;49.960;8.018;2022-09-09T08:40:19;19.60;99.90
6988;DHT22;3534;49.960;8.018;2022-09-09T08:42:49;19.60;99.90
6988;DHT22;3534;49.960;8.018;2022-09-09T08:45:31;19.60;99.90
6988;DHT22;3534;49.960;8.018;2022-09-09T08:48:09;19.60;99.90
6988;DHT22;3534;49.960;8.018;2022-09-09T08:50:41;19.60;99.90
6988;DHT22;3534;49.960;8.018;2022-09-09T08:53:13;19.60;99.90
6988;DHT22;3534;49.960;8.018;2022-09-09T08:55:45;19.60;99.90
6988;DHT22;3534;49.960;8.018;2022-09-09T08:58:15;19.60;99.90
6988;DHT22;3534;49.960;8.018;2022-09-09T09:03:43;19.70;99.90
6988;DHT22;3534;49.960;8.018;2022-09-09T09:06:26;19.70;99.90
6988;DHT22;3534;49.960;8.018;2022-09-09T09:09:01;19.80;99.90
6988;DHT22;3534;49.960;8.018;2022-09-09T09:11:35;19.80;99.90
6988;DHT22;3534;49.960;8.018;2022-09-09T09:14:03;19.80;99.90
6988;DHT22;3534;49.960;8.018;2022-09-09T09:16:41;19.80;99.90
6988;DHT22;3534;49.960;8.018;2022-09-09T09:19:13;19.90;99.90
6988;DHT22;3534;49.960;8.018;2022-09-09T09:21:43;19.90;99.90
6988;DHT22;3534;49.960;8.018;2022-09-09T09:24:18;20.00;99.90
6988;DHT22;3534;49.960;8.018;2022-09-09T09:26:45;20.00;99.90
6988;DHT22;3534;49.960;8.018;2022-09-09T09:29:14;20.00;99.90
6988;DHT22;3534;49.960;8.018;2022-09-09T09:31:45;20.10;99.90
6988;DHT22;3534;49.960;8.018;2022-09-09T09:34:14;20.00;99.90
6988;DHT22;3534;49.960;8.018;2022-09-09T09:36:45;20.10;99.90
6988;DHT22;3534;49.960;8.018;2022-09-09T09:39:22;20.10;99.90
6988;DHT22;3534;49.960;8.018;2022-09-09T09:41:49;20.10;99.90
6988;DHT22;3534;49.960;8.018;2022-09-09T09:44:24;20.10;99.90
6988;DHT22;3534;49.960;8.018;2022-09-09T09:47:04;20.20;99.90
6988;DHT22;3534;49.960;8.018;2022-09-09T09:49:32;20.20;99.90
6988;DHT22;3534;49.960;8.018;2022-09-09T09:52:00;20.30;99.90
6988;DHT22;3534;49.960;8.018;2022-09-09T09:54:29;20.30;99.90
6988;DHT22;3534;49.960;8.018;2022-09-09T09:56:56;20.40;99.90
6988;DHT22;3534;49.960;8.018;2022-09-09T09:59:35;20.40;99.90
6988;DHT22;3534;49.960;8.018;2022-09-09T10:02:21;20.40;99.90
6988;DHT22;3534;49.960;8.018;2022-09-09T10:05:00;20.50;99.90
6988;DHT22;3534;49.960;8.018;2022-09-09T10:07:27;20.50;99.90
6988;DHT22;3534;49.960;8.018;2022-09-09T10:09:56;20.60;99.90
6988;DHT22;3534;49.960;8.018;2022-09-09T10:12:33;20.60;99.90
6988;DHT22;3534;49.960;8.018;2022-09-09T10:15:11;20.60;99.90
6988;DHT22;3534;49.960;8.018;2022-09-09T10:17:50;20.70;99.90
6988;DHT22;3534;49.960;8.018;2022-09-09T10:20:29;20.80;99.90
6988;DHT22;3534;49.960;8.018;2022-09-09T10:23:07;20.80;99.90
6988;DHT22;3534;49.960;8.018;2022-09-09T10:25:49;20.90;99.90
6988;DHT22;3534;49.960;8.018;2022-09-09T10:28:33;20.90;99.90
6988;DHT22;3534;49.960;8.018;2022-09-09T10:31:12;21.00;99.90
6988;DHT22;3534;49.960;8.018;2022-09-09T10:33:50;21.00;99.90
6988;DHT22;3534;49.960;8.018;2022-09-09T10:36:20;21.10;99.90
6988;DHT22;3534;49.960;8.018;2022-09-09T10:38:57;21.00;99.90
6988;DHT22;3534;49.960;8.018;2022-09-09T10:41:42;21.10;99.90
6988;DHT22;3534;49.960;8.018;2022-09-09T10:44:24;21.10;99.90
6988;DHT22;3534;49.960;8.018;2022-09-09T10:47:22;21.10;99.90
6988;DHT22;3534;49.960;8.018;2022-09-09T10:50:06;21.20;99.90
6988;DHT22;3534;49.960;8.018;2022-09-09T10:52:42;21.20;99.90
6988;DHT22;3534;49.960;8.018;2022-09-09T10:55:18;21.30;99.90
6988;DHT22;3534;49.960;8.018;2022-09-09T10:57:47;21.40;99.90
6988;DHT22;3534;49.960;8.018;2022-09-09T11:00:17;21.40;99.90
6988;DHT22;3534;49.960;8.018;2022-09-09T11:02:46;21.50;99.90
6988;DHT22;3534;49.960;8.018;2022-09-09T11:05:19;21.60;99.90
6988;DHT22;3534;49.960;8.018;2022-09-09T11:07:49;21.60;99.90
6988;DHT22;3534;49.960;8.018;2022-09-09T11:10:23;21.70;99.90
6988;DHT22;3534;49.960;8.018;2022-09-09T11:12:53;21.70;99.90
6988;DHT22;3534;49.960;8.018;2022-09-09T11:15:29;21.80;99.90
6988;DHT22;3534;49.960;8.018;2022-09-09T11:18:01;21.90;99.90
6988;DHT22;3534;49.960;8.018;2022-09-09T11:20:29;22.00;99.90
6988;DHT22;3534;49.960;8.018;2022-09-09T11:23:00;22.10;99.90
6988;DHT22;3534;49.960;8.018;2022-09-09T11:25:32;22.20;99.90
6988;DHT22;3534;49.960;8.018;2022-09-09T11:28:10;22.20;99.90
6988;DHT22;3534;49.960;8.018;2022-09-09T11:30:52;22.30;99.90
6988;DHT22;3534;49.960;8.018;2022-09-09T11:33:46;22.20;99.90
6988;DHT22;3534;49.960;8.018;2022-09-09T11:36:35;22.10;99.90
6988;DHT22;3534;49.960;8.018;2022-09-09T11:39:22;22.10;99.90
6988;DHT22;3534;49.960;8.018;2022-09-09T11:41:53;22.00;99.90
6988;DHT22;3534;49.960;8.018;2022-09-09T11:44:28;21.90;99.90
6988;DHT22;3534;49.960;8.018;2022-09-09T11:46:56;21.90;99.90
6988;DHT22;3534;49.960;8.018;2022-09-09T11:49:27;21.80;99.90
6988;DHT22;3534;49.960;8.018;2022-09-09T11:51:56;21.70;99.90
6988;DHT22;3534;49.960;8.018;2022-09-09T11:54:29;21.70;99.90
6988;DHT22;3534;49.960;8.018;2022-09-09T11:56:56;21.70;99.90
6988;DHT22;3534;49.960;8.018;2022-09-09T11:59:24;21.60;99.90
6988;DHT22;3534;49.960;8.018;2022-09-09T12:01:55;21.50;99.90
6988;DHT22;3534;49.960;8.018;2022-09-09T12:04:35;21.50;99.90
6988;DHT22;3534;49.960;8.018;2022-09-09T12:07:25;21.40;99.90
6988;DHT22;3534;49.960;8.018;2022-09-09T12:09:56;21.40;99.90
6988;DHT22;3534;49.960;8.018;2022-09-09T12:12:27;21.30;99.90
6988;DHT22;3534;49.960;8.018;2022-09-09T12:14:57;21.20;99.90
6988;DHT22;3534;49.960;8.018;2022-09-09T12:17:26;21.10;99.90
6988;DHT22;3534;49.960;8.018;2022-09-09T12:20:01;21.10;99.90
6988;DHT22;3534;49.960;8.018;2022-09-09T12:22:37;21.30;99.90
6988;DHT22;3534;49.960;8.018;2022-09-09T12:25:18;21.60;99.90
6988;DHT22;3534;49.960;8.018;2022-09-09T12:27:58;22.00;99.90
6988;DHT22;3534;49.960;8.018;2022-09-09T12:30:29;22.40;99.90
6988;DHT22;3534;49.960;8.018;2022-09-09T12:33:02;22.80;99.90
6988;DHT22;3534;49.960;8.018;2022-09-09T12:35:29;23.00;99.90
6988;DHT22;3534;49.960;8.018;2022-09-09T12:38:00;23.20;99.90
6988;DHT22;3534;49.960;8.018;2022-09-09T12:40:29;23.40;99.90
6988;DHT22;3534;49.960;8.018;2022-09-09T12:42:57;23.60;99.90
6988;DHT22;3534;49.960;8.018;2022-09-09T12:45:28;23.90;99.90
6988;DHT22;3534;49.960;8.018;2022-09-09T12:47:58;24.10;99.90
6988;DHT22;3534;49.960;8.018;2022-09-09T12:50:29;24.30;99.90
6988;DHT22;3534;49.960;8.018;2022-09-09T12:53:01;24.40;99.90
6988;DHT22;3534;49.960;8.018;2022-09-09T12:55:30;24.60;99.90
6988;DHT22;3534;49.960;8.018;2022-09-09T12:57:59;24.80;99.90
6988;DHT22;3534;49.960;8.018;2022-09-09T13:00:29;25.00;99.90
6988;DHT22;3534;49.960;8.018;2022-09-09T13:02:58;25.20;99.90
6988;DHT22;3534;49.960;8.018;2022-09-09T13:05:26;25.40;99.90
6988;DHT22;3534;49.960;8.018;2022-09-09T13:08:02;25.50;99.90
6988;DHT22;3534;49.960;8.018;2022-09-09T13:10:33;25.50;99.90
6988;DHT22;3534;49.960;8.018;2022-09-09T13:13:00;25.60;99.90
6988;DHT22;3534;49.960;8.018;2022-09-09T13:15:29;25.70;99.90
6988;DHT22;3534;49.960;8.018;2022-09-09T13:17:57;25.70;99.90
6988;DHT22;3534;49.960;8.018;2022-09-09T13:20:26;25.40;99.90
6988;DHT22;3534;49.960;8.018;2022-09-09T13:22:54;25.20;99.90
6988;DHT22;3534;49.960;8.018;2022-09-09T13:25:25;25.00;99.90
6988;DHT22;3534;49.960;8.018;2022-09-09T13:27:57;24.70;99.90
6988;DHT22;3534;49.960;8.018;2022-09-09T13:30:27;24.30;99.90
6988;DHT22;3534;49.960;8.018;2022-09-09T13:33:02;24.00;99.90
6988;DHT22;3534;49.960;8.018;2022-09-09T13:35:30;23.60;99.90
6988;DHT22;3534;49.960;8.018;2022-09-09T13:37:57;23.40;99.90
6988;DHT22;3534;49.960;8.018;2022-09-09T13:40:26;23.20;99.90
6988;DHT22;3534;49.960;8.018;2022-09-09T13:42:55;23.00;99.90
6988;DHT22;3534;49.960;8.018;2022-09-09T13:45:31;22.80;99.90
6988;DHT22;3534;49.960;8.018;2022-09-09T13:48:09;22.60;99.90
6988;DHT22;3534;49.960;8.018;2022-09-09T13:50:36;22.50;99.90
6988;DHT22;3534;49.960;8.018;2022-09-09T13:53:03;22.40;99.90
6988;DHT22;3534;49.960;8.018;2022-09-09T13:55:30;22.40;99.90
6988;DHT22;3534;49.960;8.018;2022-09-09T13:57:58;22.40;99.90
6988;DHT22;3534;49.960;8.018;2022-09-09T14:00:26;22.30;99.90
6988;DHT22;3534;49.960;8.018;2022-09-09T14:02:54;22.30;99.90
6988;DHT22;3534;49.960;8.018;2022-09-09T14:05:21;22.20;99.90
6988;DHT22;3534;49.960;8.018;2022-09-09T14:07:49;22.20;99.90
6988;DHT22;3534;49.960;8.018;2022-09-09T14:10:16;22.20;99.90
6988;DHT22;3534;49.960;8.018;2022-09-09T14:12:43;22.10;99.90
6988;DHT22;3534;49.960;8.018;2022-09-09T14:15:11;22.10;99.90
6988;DHT22;3534;49.960;8.018;2022-09-09T14:17:38;22.10;99.90
6988;DHT22;3534;49.960;8.018;2022-09-09T14:20:07;22.10;99.90
6988;DHT22;3534;49.960;8.018;2022-09-09T14:22:35;22.00;99.90
6988;DHT22;3534;49.960;8.018;2022-09-09T14:25:05;22.00;99.90
6988;DHT22;3534;49.960;8.018;2022-09-09T14:27:32;22.00;99.90
6988;DHT22;3534;49.960;8.018;2022-09-09T14:29:59;22.00;99.90
6988;DHT22;3534;49.960;8.018;2022-09-09T14:32:26;21.90;99.90
6988;DHT22;3534;49.960;8.018;2022-09-09T14:34:53;22.20;99.90
6988;DHT22;3534;49.960;8.018;2022-09-09T14:37:21;22.40;99.90
6988;DHT22;3534;49.960;8.018;2022-09-09T14:39:47;22.70;99.90
6988;DHT22;3534;49.960;8.018;2022-09-09T14:42:16;22.80;99.90
6988;DHT22;3534;49.960;8.018;2022-09-09T14:44:42;23.10;99.90
6988;DHT22;3534;49.960;8.018;2022-09-09T14:47:09;23.40;99.90
6988;DHT22;3534;49.960;8.018;2022-09-09T14:49:36;23.60;99.90
6988;DHT22;3534;49.960;8.018;2022-09-09T14:52:04;23.70;99.90
6988;DHT22;3534;49.960;8.018;2022-09-09T14:54:33;23.70;99.90
6988;DHT22;3534;49.960;8.018;2022-09-09T14:56:59;23.80;99.90
6988;DHT22;3534;49.960;8.018;2022-09-09T14:59:26;24.00;99.90
6988;DHT22;3534;49.960;8.018;2022-09-09T15:01:53;24.10;99.90
6988;DHT22;3534;49.960;8.018;2022-09-09T15:04:19;24.30;99.90
6988;DHT22;3534;49.960;8.018;2022-09-09T15:06:47;24.30;99.90
6988;DHT22;3534;49.960;8.018;2022-09-09T15:09:15;24.20;99.90
6988;DHT22;3534;49.960;8.018;2022-09-09T15:11:43;24.10;99.90
6988;DHT22;3534;49.960;8.018;2022-09-09T15:14:10;23.90;99.90
6988;DHT22;3534;49.960;8.018;2022-09-09T15:16:39;23.60;99.90
6988;DHT22;3534;49.960;8.018;2022-09-09T15:19:05;23.50;99.90
6988;DHT22;3534;49.960;8.018;2022-09-09T15:21:33;23.30;99.90
6988;DHT22;3534;49.960;8.018;2022-09-09T15:24:00;23.30;99.90
6988;DHT22;3534;49.960;8.018;2022-09-09T15:26:27;23.20;99.90
6988;DHT22;3534;49.960;8.018;2022-09-09T15:28:56;23.00;99.90
6988;DHT22;3534;49.960;8.018;2022-09-09T15:31:26;23.00;99.90
6988;DHT22;3534;49.960;8.018;2022-09-09T15:33:55;22.90;99.90
6988;DHT22;3534;49.960;8.018;2022-09-09T15:36:27;22.80;99.90
6988;DHT22;3534;49.960;8.018;2022-09-09T15:38:55;22.70;99.90
6988;DHT22;3534;49.960;8.018;2022-09-09T15:41:23;22.60;99.90
6988;DHT22;3534;49.960;8.018;2022-09-09T15:43:52;22.50;99.90
6988;DHT22;3534;49.960;8.018;2022-09-09T15:46:39;22.40;99.90
6988;DHT22;3534;49.960;8.018;2022-09-09T15:49:09;22.30;99.90
6988;DHT22;3534;49.960;8.018;2022-09-09T15:51:37;22.20;99.90
6988;DHT22;3534;49.960;8.018;2022-09-09T15:54:04;22.20;99.90
6988;DHT22;3534;49.960;8.018;2022-09-09T15:56:31;22.30;99.90
6988;DHT22;3534;49.960;8.018;2022-09-09T15:59:00;22.20;99.90
6988;DHT22;3534;49.960;8.018;2022-09-09T16:01:28;22.20;99.90
6988;DHT22;3534;49.960;8.018;2022-09-09T16:03:57;22.20;99.90
6988;DHT22;3534;49.960;8.018;2022-09-09T16:06:26;22.10;99.90
6988;DHT22;3534;49.960;8.018;2022-09-09T16:08:55;22.00;99.90
6988;DHT22;3534;49.960;8.018;2022-09-09T16:11:23;21.90;99.90
6988;DHT22;3534;49.960;8.018;2022-09-09T16:13:52;21.90;99.90
6988;DHT22;3534;49.960;8.018;2022-09-09T16:16:20;21.80;99.90
6988;DHT22;3534;49.960;8.018;2022-09-09T16:18:48;21.70;99.90
6988;DHT22;3534;49.960;8.018;2022-09-09T16:21:19;21.70;99.90
6988;DHT22;3534;49.960;8.018;2022-09-09T16:23:47;21.60;99.90
6988;DHT22;3534;49.960;8.018;2022-09-09T16:26:15;21.50;99.90
6988;DHT22;3534;49.960;8.018;2022-09-09T16:28:42;21.40;99.90